< < Back
Terminal Aerodrome Forecast


Current Version              Previous Versions:   1  2  3  4  5  6  7  8  9  

Terminal Aerodrome Forecast

390
FTUS44 KMRX 291337 AAA
TAFCHA
TAF AMD
KCHA 291337Z 2914/3012 22005KT P6SM BKN030
     FM291600 24006KT P6SM BKN035
     FM291900 25009KT P6SM VCTS BKN040CB
     FM300200 20003KT P6SM SCT050 BKN250
     FM300800 00000KT P6SM BKN030=

Latest METAR

028
SAUS80 KWBC 291500 RRC
MTRCHA
METAR KCHA 291453Z 26008KT 10SM SCT028 BKN043 BKN085 28/21 A3001 RMK AO2
SLP154 T02830206 58003 $


USA.gov is the U.S. government's official web portal to all federal, state and local government web resources and services.